Time;durP1;ratioP1;P1;durP2;ratioP2;P2;SDS_P1;SDS_P2;PMS_P1;PMS_P2;Temp;Humidity;BMP_temperature;BMP_pressure;BME280_temperature;BME280_humidity;BME280_pressure;Samples;Min_cycle;Max_cycle;Signal;HPM_P1;HPM_P2
2024/03/20 00:00:15;;;;;;;13.50;6.20;;;8.60;99.90;;;;;;4976114;28;20054;-85
2024/03/20 00:02:41;;;;;;;11.13;5.18;;;8.60;99.90;;;;;;4975096;28;20037;-84
2024/03/20 00:05:08;;;;;;;10.55;5.88;;;8.60;99.90;;;;;;4989828;28;20058;-85
2024/03/20 00:07:33;;;;;;;12.00;6.28;;;8.60;99.90;;;;;;4960400;28;20022;-85
2024/03/20 00:09:59;;;;;;;10.77;4.97;;;8.60;99.90;;;;;;4984522;28;20451;-85
2024/03/20 00:12:26;;;;;;;11.60;5.82;;;8.60;99.90;;;;;;4971477;28;20036;-85
2024/03/20 00:14:52;;;;;;;12.27;5.30;;;8.60;99.90;;;;;;4976343;28;20088;-85
2024/03/20 00:17:18;;;;;;;13.35;5.80;;;8.60;99.90;;;;;;4964017;28;20027;-85
2024/03/20 00:19:43;;;;;;;14.93;5.40;;;8.60;99.90;;;;;;4964131;28;20030;-84
2024/03/20 00:22:09;;;;;;;11.20;5.90;;;8.60;99.90;;;;;;4975788;28;20023;-85
2024/03/20 00:24:35;;;;;;;15.80;5.90;;;8.60;99.90;;;;;;4970365;28;20031;-84
2024/03/20 00:27:00;;;;;;;11.57;6.07;;;8.60;99.90;;;;;;4959208;28;20369;-85
2024/03/20 00:29:27;;;;;;;12.77;5.75;;;8.60;99.90;;;;;;4976304;28;20064;-85
2024/03/20 00:31:54;;;;;;;14.15;5.13;;;8.60;99.90;;;;;;4975483;28;20033;-84
2024/03/20 00:34:20;;;;;;;10.82;5.47;;;8.60;99.90;;;;;;4975964;28;20030;-85
2024/03/20 00:36:46;;;;;;;15.57;4.95;;;8.60;99.90;;;;;;4993264;28;20030;-85
2024/03/20 00:39:12;;;;;;;13.45;5.32;;;8.60;99.90;;;;;;4975354;28;20030;-85
2024/03/20 00:41:38;;;;;;;15.88;6.88;;;8.60;99.90;;;;;;4960577;28;20134;-85
2024/03/20 00:44:04;;;;;;;12.75;5.72;;;8.70;99.90;;;;;;4969726;28;20482;-85
2024/03/20 00:46:30;;;;;;;12.13;5.43;;;8.70;99.90;;;;;;4993347;28;20034;-85
2024/03/20 00:48:55;;;;;;;11.30;4.65;;;8.70;99.90;;;;;;4975668;28;20034;-85
2024/03/20 00:51:21;;;;;;;13.38;5.40;;;8.70;99.90;;;;;;4992855;28;20034;-84
2024/03/20 00:53:46;;;;;;;11.98;5.15;;;8.70;99.90;;;;;;4960077;28;20109;-84
2024/03/20 00:56:12;;;;;;;12.40;5.40;;;8.70;99.90;;;;;;4975728;28;20033;-85
2024/03/20 00:58:38;;;;;;;11.60;5.18;;;8.70;99.90;;;;;;4975699;28;20403;-85
2024/03/20 01:01:03;;;;;;;14.10;6.28;;;8.80;99.90;;;;;;4969628;28;20106;-85
2024/03/20 01:03:29;;;;;;;14.60;5.25;;;8.70;99.90;;;;;;4967468;28;20530;-85
2024/03/20 01:05:55;;;;;;;8.82;4.63;;;8.70;99.90;;;;;;4992966;28;20034;-85
2024/03/20 01:08:21;;;;;;;12.80;4.63;;;8.70;99.90;;;;;;4975555;28;20057;-85
2024/03/20 01:10:47;;;;;;;13.52;6.32;;;8.70;99.90;;;;;;4971169;28;20035;-85
2024/03/20 01:13:13;;;;;;;12.80;5.53;;;8.70;99.90;;;;;;4966924;28;20085;-85
2024/03/20 01:15:38;;;;;;;13.95;6.43;;;8.70;99.90;;;;;;4970057;28;20435;-85
2024/03/20 01:18:04;;;;;;;14.00;6.75;;;8.70;99.90;;;;;;4975460;28;20046;-84
2024/03/20 01:20:30;;;;;;;17.02;6.88;;;8.70;99.90;;;;;;4975563;28;20030;-85
2024/03/20 01:22:58;;;;;;;14.18;7.32;;;8.60;99.90;;;;;;4971948;28;20093;-84
2024/03/20 01:25:23;;;;;;;11.73;6.85;;;8.70;99.90;;;;;;4969242;28;20073;-85
2024/03/20 01:27:49;;;;;;;14.13;7.20;;;8.60;99.90;;;;;;4971373;28;20022;-85
2024/03/20 01:30:15;;;;;;;11.10;5.80;;;8.60;99.90;;;;;;4975263;28;20410;-85
2024/03/20 01:32:40;;;;;;;16.70;7.57;;;8.60;99.90;;;;;;4975354;28;20027;-84
2024/03/20 01:35:07;;;;;;;13.27;7.72;;;8.60;99.90;;;;;;4963661;28;20097;-85
2024/03/20 01:37:34;;;;;;;15.40;7.55;;;8.50;99.90;;;;;;4979754;28;20030;-85
2024/03/20 01:39:59;;;;;;;13.93;8.13;;;8.50;99.90;;;;;;4973043;28;20035;-84
2024/03/20 01:42:25;;;;;;;12.93;7.97;;;8.50;99.90;;;;;;4960718;28;20038;-84
2024/03/20 01:45:15;;;;;;;14.57;7.97;;;8.50;99.90;;;;;;4976564;28;20040;-84
2024/03/20 01:47:47;;;;;;;11.82;6.78;;;8.50;99.90;;;;;;4968737;28;20023;-84
2024/03/20 01:50:16;;;;;;;14.00;7.82;;;8.50;99.90;;;;;;4959992;28;20048;-85
2024/03/20 01:52:55;;;;;;;14.18;7.70;;;8.50;99.90;;;;;;4978416;28;20023;-84
2024/03/20 01:55:24;;;;;;;15.07;6.20;;;8.50;99.90;;;;;;4974916;28;20030;-84
2024/03/20 01:57:51;;;;;;;11.95;5.70;;;8.40;99.90;;;;;;4966989;28;20027;-85
2024/03/20 02:00:24;;;;;;;12.73;5.93;;;8.30;99.90;;;;;;4972119;28;20491;-85
2024/03/20 02:02:50;;;;;;;11.55;6.05;;;8.30;99.90;;;;;;4974098;28;20027;-84
2024/03/20 02:05:17;;;;;;;11.60;6.88;;;8.20;99.90;;;;;;4975481;28;20035;-84
2024/03/20 02:07:43;;;;;;;13.40;7.35;;;8.20;99.90;;;;;;4975713;28;20058;-83
2024/03/20 02:10:09;;;;;;;12.85;7.68;;;8.20;99.90;;;;;;4977380;28;20030;-84
2024/03/20 02:12:35;;;;;;;15.05;8.13;;;8.10;99.90;;;;;;4975873;28;20079;-84
2024/03/20 02:15:12;;;;;;;12.18;6.57;;;8.20;99.90;;;;;;4975517;28;20027;-84
2024/03/20 02:17:42;;;;;;;11.48;7.25;;;8.10;99.90;;;;;;4975277;28;20490;-84
2024/03/20 02:20:09;;;;;;;16.15;8.00;;;8.10;99.90;;;;;;4974704;28;20031;-84
2024/03/20 02:22:44;;;;;;;16.25;7.85;;;8.10;99.90;;;;;;4968695;28;20023;-84
2024/03/20 02:25:13;;;;;;;14.80;7.95;;;8.10;99.90;;;;;;4975053;28;20026;-84
2024/03/20 02:27:39;;;;;;;18.75;8.68;;;8.10;99.90;;;;;;4974562;28;20383;-84
2024/03/20 02:30:12;;;;;;;14.27;7.88;;;8.10;99.90;;;;;;4974882;28;20050;-84
2024/03/20 02:32:39;;;;;;;12.20;7.53;;;8.00;99.90;;;;;;4972936;28;20074;-84
2024/03/20 02:35:05;;;;;;;20.58;8.80;;;8.00;99.90;;;;;;4975259;28;20023;-84
2024/03/20 02:37:31;;;;;;;15.93;9.15;;;8.00;99.90;;;;;;4972643;28;20480;-84
2024/03/20 02:39:57;;;;;;;18.65;10.50;;;7.90;99.90;;;;;;4972747;28;20476;-84
2024/03/20 02:42:23;;;;;;;18.33;9.98;;;8.00;99.90;;;;;;4975198;28;20031;-84
2024/03/20 02:44:52;;;;;;;25.25;11.80;;;8.00;99.90;;;;;;4974934;28;20030;-84
2024/03/20 02:47:18;;;;;;;16.52;10.32;;;7.90;99.90;;;;;;4974490;28;20105;-84
2024/03/20 02:49:46;;;;;;;19.33;11.07;;;7.90;99.90;;;;;;4974865;28;20105;-84
2024/03/20 02:52:13;;;;;;;21.27;11.38;;;7.90;99.90;;;;;;4975170;28;20487;-84
2024/03/20 02:54:38;;;;;;;21.10;11.45;;;8.00;99.90;;;;;;4975179;28;20137;-84
2024/03/20 02:57:04;;;;;;;20.23;11.20;;;8.00;99.90;;;;;;4974893;28;20488;-84
2024/03/20 02:59:29;;;;;;;19.75;11.45;;;8.00;99.90;;;;;;4974861;28;20046;-84
2024/03/20 03:01:55;;;;;;;18.83;11.30;;;8.10;99.90;;;;;;4969123;28;20117;-84
2024/03/20 03:04:20;;;;;;;19.85;10.88;;;8.10;99.90;;;;;;4958791;28;20034;-84
2024/03/20 03:06:46;;;;;;;18.77;11.45;;;8.20;99.90;;;;;;4974212;28;20035;-84
2024/03/20 03:09:16;;;;;;;21.17;11.00;;;8.30;99.90;;;;;;4974280;28;20046;-84
2024/03/20 03:11:47;;;;;;;20.92;12.32;;;8.30;99.90;;;;;;4974620;28;20402;-84
2024/03/20 03:14:14;;;;;;;24.27;11.60;;;8.30;99.90;;;;;;4971398;28;20054;-83
2024/03/20 03:16:39;;;;;;;18.23;10.90;;;8.30;99.90;;;;;;4959665;28;20121;-85
2024/03/20 03:19:06;;;;;;;19.65;10.95;;;8.30;99.90;;;;;;4974041;28;20093;-84
2024/03/20 03:21:32;;;;;;;18.15;11.32;;;8.30;99.90;;;;;;4973826;28;20031;-84
2024/03/20 03:23:57;;;;;;;17.65;10.60;;;8.30;99.90;;;;;;4970697;28;20027;-84
2024/03/20 03:26:24;;;;;;;23.13;11.88;;;8.30;99.90;;;;;;4971984;28;20495;-84
2024/03/20 03:28:50;;;;;;;20.40;11.65;;;8.40;99.90;;;;;;4984369;28;20031;-84
2024/03/20 03:31:15;;;;;;;19.33;11.55;;;8.40;99.90;;;;;;4966154;28;20042;-84
2024/03/20 03:33:41;;;;;;;17.38;10.90;;;8.40;99.90;;;;;;4965294;28;20074;-84
2024/03/20 03:36:08;;;;;;;20.95;11.65;;;8.50;99.90;;;;;;4970130;28;20086;-84
2024/03/20 03:38:34;;;;;;;17.85;11.30;;;8.50;99.90;;;;;;4972174;28;20031;-84
2024/03/20 03:41:00;;;;;;;16.42;11.20;;;8.40;99.90;;;;;;4967417;28;20034;-85
2024/03/20 03:43:26;;;;;;;14.57;10.32;;;8.40;99.90;;;;;;4956581;28;20026;-84
2024/03/20 03:45:52;;;;;;;23.52;12.68;;;8.30;99.90;;;;;;4973454;28;20030;-84
2024/03/20 03:48:19;;;;;;;19.05;12.05;;;8.30;99.90;;;;;;4973063;28;20115;-84
2024/03/20 03:50:47;;;;;;;27.63;14.20;;;8.30;99.90;;;;;;4973123;28;20030;-84
2024/03/20 03:53:14;;;;;;;22.58;11.98;;;8.30;99.90;;;;;;4968596;28;20034;-84
2024/03/20 03:55:39;;;;;;;18.58;12.90;;;8.30;99.90;;;;;;4960135;28;20031;-84
2024/03/20 03:58:05;;;;;;;20.25;12.40;;;8.20;99.90;;;;;;4970757;28;20077;-84
2024/03/20 04:00:31;;;;;;;18.10;12.45;;;8.20;99.90;;;;;;4963684;28;20081;-84
2024/03/20 04:02:57;;;;;;;22.95;11.95;;;8.20;99.90;;;;;;4960017;28;20065;-84
2024/03/20 04:05:24;;;;;;;23.92;13.95;;;8.20;99.90;;;;;;4961922;28;20546;-84
2024/03/20 04:07:53;;;;;;;25.25;14.27;;;8.10;99.90;;;;;;4960063;28;20019;-85
2024/03/20 04:10:22;;;;;;;22.33;13.48;;;8.10;99.90;;;;;;4981737;28;20039;-84
2024/03/20 04:12:48;;;;;;;27.10;14.52;;;8.10;99.90;;;;;;4974401;28;20066;-84
2024/03/20 04:15:14;;;;;;;21.10;12.05;;;8.00;99.90;;;;;;4982331;28;20073;-84
2024/03/20 04:17:40;;;;;;;22.08;12.57;;;8.00;99.90;;;;;;4972749;28;20023;-85
2024/03/20 04:20:10;;;;;;;23.98;12.80;;;8.00;99.90;;;;;;4972758;28;20038;-84
2024/03/20 04:22:42;;;;;;;24.15;13.65;;;7.90;99.90;;;;;;4962211;28;20038;-84
2024/03/20 04:25:08;;;;;;;23.40;13.97;;;7.90;99.90;;;;;;4968732;28;20372;-84
2024/03/20 04:27:37;;;;;;;22.02;13.68;;;7.80;99.90;;;;;;4972864;28;20031;-84
2024/03/20 04:30:03;;;;;;;20.20;12.63;;;7.80;99.90;;;;;;4971489;28;20027;-84
2024/03/20 04:32:30;;;;;;;20.45;12.98;;;7.80;99.90;;;;;;4971365;28;20037;-84
2024/03/20 04:34:55;;;;;;;23.08;13.43;;;7.80;99.90;;;;;;4968221;28;20376;-84
2024/03/20 04:37:21;;;;;;;18.75;13.80;;;7.70;99.90;;;;;;4968648;28;20026;-84
2024/03/20 04:39:47;;;;;;;22.70;12.25;;;7.80;99.90;;;;;;4973869;28;20498;-84
2024/03/20 04:42:12;;;;;;;21.90;14.10;;;7.80;99.90;;;;;;4972153;28;20447;-84
2024/03/20 04:44:39;;;;;;;23.20;14.05;;;7.70;99.90;;;;;;4967829;28;20049;-85
2024/03/20 04:47:05;;;;;;;23.50;14.90;;;7.60;99.90;;;;;;4968878;28;20045;-85
2024/03/20 04:49:30;;;;;;;24.38;14.13;;;7.70;99.90;;;;;;4985666;28;20386;-84
2024/03/20 04:51:56;;;;;;;24.08;15.93;;;7.70;99.90;;;;;;4954522;28;20519;-85
2024/03/20 04:54:22;;;;;;;23.38;15.88;;;7.60;99.90;;;;;;4958914;28;20027;-85
2024/03/20 04:56:47;;;;;;;22.33;14.02;;;7.60;99.90;;;;;;4971308;28;20151;-85
2024/03/20 04:59:13;;;;;;;22.48;14.20;;;7.60;99.90;;;;;;4971583;28;20046;-84
2024/03/20 05:01:38;;;;;;;23.10;14.02;;;7.60;99.90;;;;;;4969398;28;20027;-84
2024/03/20 05:04:04;;;;;;;20.83;13.55;;;7.60;99.90;;;;;;4968576;28;20379;-84
2024/03/20 05:06:30;;;;;;;25.23;14.30;;;7.60;99.90;;;;;;4967850;28;20023;-84
2024/03/20 05:08:55;;;;;;;21.25;13.10;;;7.50;99.90;;;;;;4976383;28;20027;-84
2024/03/20 05:11:21;;;;;;;22.85;14.38;;;7.50;99.90;;;;;;4992722;28;20422;-84
2024/03/20 05:13:47;;;;;;;23.73;13.50;;;7.50;99.90;;;;;;4976573;28;20030;-84
2024/03/20 05:16:12;;;;;;;24.75;13.60;;;7.50;99.90;;;;;;4972600;28;20031;-84
2024/03/20 05:18:38;;;;;;;24.75;13.80;;;7.50;99.90;;;;;;4976060;28;20018;-83
2024/03/20 05:21:03;;;;;;;22.20;13.25;;;7.50;99.90;;;;;;4976220;28;20391;-84
2024/03/20 05:23:29;;;;;;;21.80;13.63;;;7.50;99.90;;;;;;4968511;28;20107;-84
2024/03/20 05:25:56;;;;;;;18.52;12.60;;;7.50;99.90;;;;;;4970661;28;20122;-85
2024/03/20 05:28:22;;;;;;;22.67;14.45;;;7.50;99.90;;;;;;4975099;28;20026;-85
2024/03/20 05:30:49;;;;;;;19.10;12.95;;;7.50;99.90;;;;;;5003363;28;20067;-85
2024/03/20 05:33:14;;;;;;;21.52;12.52;;;7.50;99.90;;;;;;4988392;28;20033;-85
2024/03/20 05:35:40;;;;;;;19.95;13.88;;;7.40;99.90;;;;;;4977891;28;20030;-85
2024/03/20 05:38:05;;;;;;;20.90;13.25;;;7.40;99.90;;;;;;4973594;28;20023;-85
2024/03/20 05:40:31;;;;;;;21.13;13.15;;;7.40;99.90;;;;;;4969169;28;20518;-85
2024/03/20 05:42:57;;;;;;;19.77;12.32;;;7.40;99.90;;;;;;4977657;28;20027;-85
2024/03/20 05:45:23;;;;;;;16.42;11.27;;;7.40;99.90;;;;;;4979210;28;20034;-84
2024/03/20 05:47:49;;;;;;;18.33;12.50;;;7.30;99.90;;;;;;4967121;28;20023;-85
2024/03/20 05:50:14;;;;;;;18.58;11.57;;;7.30;99.90;;;;;;4969365;28;20040;-85
2024/03/20 05:52:41;;;;;;;21.63;12.65;;;7.30;99.90;;;;;;4976129;28;20109;-84
2024/03/20 05:55:08;;;;;;;19.73;12.48;;;7.30;99.90;;;;;;4977452;28;20067;-85
2024/03/20 05:57:33;;;;;;;24.85;15.13;;;7.30;99.90;;;;;;4977269;28;20098;-85
2024/03/20 05:59:59;;;;;;;20.70;12.88;;;7.30;99.90;;;;;;4964592;28;20083;-85
2024/03/20 06:02:24;;;;;;;27.40;14.55;;;7.30;99.90;;;;;;4953562;29;20070;-85
2024/03/20 06:04:50;;;;;;;23.05;13.77;;;7.30;99.90;;;;;;4955091;29;20523;-85
2024/03/20 06:07:16;;;;;;;23.92;15.00;;;7.40;99.90;;;;;;4955901;29;20027;-85
2024/03/20 06:09:41;;;;;;;23.98;13.43;;;7.40;99.90;;;;;;4951365;29;20034;-85
2024/03/20 06:12:09;;;;;;;24.92;13.20;;;7.50;99.90;;;;;;4955523;29;20114;-85
2024/03/20 06:14:35;;;;;;;23.23;13.52;;;7.60;99.90;;;;;;4955923;29;20285;-84
2024/03/20 06:17:01;;;;;;;21.92;13.07;;;7.60;99.90;;;;;;4948686;29;20036;-85
2024/03/20 06:19:27;;;;;;;24.13;13.30;;;7.60;99.90;;;;;;4952659;28;20035;-84
2024/03/20 06:21:52;;;;;;;19.63;12.88;;;7.70;99.90;;;;;;4953767;29;20024;-85
2024/03/20 06:24:18;;;;;;;23.58;13.48;;;7.70;99.90;;;;;;4951016;29;20392;-85
2024/03/20 06:26:43;;;;;;;25.20;14.15;;;7.80;99.90;;;;;;4954996;29;20539;-84
2024/03/20 06:29:09;;;;;;;25.52;14.20;;;7.80;99.90;;;;;;4953755;29;20035;-85
2024/03/20 06:31:35;;;;;;;24.95;13.98;;;7.90;99.90;;;;;;4954556;29;20530;-85
2024/03/20 06:34:01;;;;;;;22.55;12.95;;;7.90;99.90;;;;;;4956031;29;20511;-85
2024/03/20 06:36:27;;;;;;;21.20;14.43;;;8.00;99.90;;;;;;4955689;29;20031;-85
2024/03/20 06:38:53;;;;;;;23.35;13.00;;;8.10;99.90;;;;;;4955522;29;20019;-85
2024/03/20 06:41:18;;;;;;;20.33;13.45;;;8.10;99.90;;;;;;4948542;29;20035;-85
2024/03/20 06:43:50;;;;;;;25.73;13.63;;;8.20;99.90;;;;;;4950065;29;20078;-85
2024/03/20 06:46:19;;;;;;;31.48;13.88;;;8.30;99.90;;;;;;4936273;29;20047;-85
2024/03/20 06:48:46;;;;;;;20.52;14.80;;;8.30;99.90;;;;;;4950536;29;20548;-85
2024/03/20 06:51:12;;;;;;;21.92;13.57;;;8.40;99.90;;;;;;4949002;29;20043;-85
2024/03/20 06:53:38;;;;;;;25.88;14.40;;;8.40;99.90;;;;;;4940321;29;20057;-85
2024/03/20 06:56:05;;;;;;;25.50;14.05;;;8.40;99.90;;;;;;4946900;29;20523;-85
2024/03/20 06:58:32;;;;;;;21.65;14.05;;;8.50;99.90;;;;;;4954855;29;20528;-85
2024/03/20 07:00:58;;;;;;;27.20;14.45;;;8.50;99.90;;;;;;4971473;28;20042;-85
2024/03/20 07:03:23;;;;;;;25.60;13.68;;;8.50;99.90;;;;;;4963171;28;20029;-84
2024/03/20 07:05:49;;;;;;;22.58;14.25;;;8.60;99.90;;;;;;4965904;28;20038;-85
2024/03/20 07:08:14;;;;;;;23.77;14.80;;;8.60;99.90;;;;;;4969017;28;20101;-86
2024/03/20 07:10:40;;;;;;;19.92;13.45;;;8.70;99.90;;;;;;4969616;28;20104;-85
2024/03/20 07:13:06;;;;;;;24.73;13.85;;;8.70;99.90;;;;;;4967502;28;20033;-85
2024/03/20 07:15:32;;;;;;;23.13;14.50;;;8.80;99.90;;;;;;4972562;28;20141;-85
2024/03/20 07:18:01;;;;;;;21.70;13.50;;;8.90;99.90;;;;;;4974440;28;20479;-85
2024/03/20 07:20:27;;;;;;;20.73;12.60;;;8.90;99.90;;;;;;4989909;28;20042;-84
2024/03/20 07:22:52;;;;;;;22.13;14.73;;;9.00;99.90;;;;;;4973722;28;20034;-84
2024/03/20 07:25:18;;;;;;;25.75;14.15;;;9.10;99.90;;;;;;4974467;28;20391;-85
2024/03/20 07:27:44;;;;;;;22.73;14.57;;;9.20;99.90;;;;;;4994571;28;20030;-85
2024/03/20 07:30:11;;;;;;;23.23;15.15;;;9.40;99.90;;;;;;4971712;28;20046;-85
2024/03/20 07:32:37;;;;;;;25.90;15.55;;;9.50;99.90;;;;;;4963801;28;20084;-85
2024/03/20 07:35:03;;;;;;;25.17;14.73;;;9.60;99.90;;;;;;4973632;28;20035;-85
2024/03/20 07:37:29;;;;;;;23.60;14.30;;;9.80;99.90;;;;;;4973244;28;20042;-85
2024/03/20 07:39:54;;;;;;;23.55;16.27;;;9.90;99.90;;;;;;4968039;28;20023;-85
2024/03/20 07:42:21;;;;;;;33.90;19.50;;;10.00;99.90;;;;;;4968879;28;20055;-85
2024/03/20 07:44:49;;;;;;;25.73;18.33;;;10.20;99.90;;;;;;4971086;28;20022;-84
2024/03/20 07:47:15;;;;;;;27.02;17.65;;;10.30;99.90;;;;;;4973799;28;20121;-85
2024/03/20 07:49:40;;;;;;;30.95;19.50;;;10.40;99.90;;;;;;4965956;28;20111;-85
2024/03/20 07:52:06;;;;;;;32.70;21.17;;;10.60;99.90;;;;;;4963779;28;20149;-85
2024/03/20 07:54:32;;;;;;;33.63;20.80;;;10.70;99.90;;;;;;4972091;28;20051;-85
2024/03/20 07:56:58;;;;;;;35.40;21.02;;;10.80;99.90;;;;;;4960674;28;20443;-85
2024/03/20 07:59:25;;;;;;;28.77;20.02;;;10.90;99.90;;;;;;4972870;28;20047;-88
2024/03/20 08:01:51;;;;;;;34.55;19.52;;;11.00;99.90;;;;;;4974636;28;20030;-88
2024/03/20 08:04:17;;;;;;;25.90;17.75;;;11.20;99.90;;;;;;4970866;28;20511;-88
2024/03/20 08:06:43;;;;;;;28.65;18.27;;;11.30;99.90;;;;;;4972852;28;20117;-87
2024/03/20 08:09:09;;;;;;;32.42;18.40;;;11.40;99.90;;;;;;4966283;28;20129;-87
2024/03/20 08:11:35;;;;;;;30.85;17.30;;;11.50;99.90;;;;;;4972353;28;20076;-87
2024/03/20 08:14:07;;;;;;;26.50;16.73;;;11.60;99.90;;;;;;4970737;28;20110;-87
2024/03/20 08:16:34;;;;;;;23.77;16.08;;;11.80;99.90;;;;;;4969055;28;20116;-87
2024/03/20 08:19:00;;;;;;;25.25;16.08;;;11.90;99.90;;;;;;4968917;28;20031;-87
2024/03/20 08:21:26;;;;;;;25.83;16.23;;;12.00;99.90;;;;;;4971812;28;20062;-87
2024/03/20 08:23:52;;;;;;;29.17;15.32;;;12.20;99.90;;;;;;4972862;28;20061;-87
2024/03/20 08:26:18;;;;;;;25.58;15.50;;;12.30;99.90;;;;;;4967454;28;20066;-88
2024/03/20 08:28:43;;;;;;;26.63;16.83;;;12.40;99.90;;;;;;4969936;28;20026;-88
2024/03/20 08:31:09;;;;;;;23.70;15.75;;;12.50;99.90;;;;;;4957757;28;20049;-87
2024/03/20 08:33:35;;;;;;;26.60;15.73;;;12.60;99.90;;;;;;4988388;28;20022;-87
2024/03/20 08:36:00;;;;;;;30.45;16.98;;;12.60;99.90;;;;;;4972715;28;20034;-86
2024/03/20 08:38:27;;;;;;;26.80;16.90;;;12.70;99.90;;;;;;4968991;28;20035;-87
2024/03/20 08:40:53;;;;;;;29.92;17.00;;;12.70;99.90;;;;;;4964116;28;20122;-87
2024/03/20 08:43:19;;;;;;;26.67;15.43;;;12.90;99.90;;;;;;4971084;28;20194;-87
2024/03/20 08:45:45;;;;;;;31.58;16.80;;;12.90;99.90;;;;;;4967745;28;20031;-87
2024/03/20 08:48:12;;;;;;;24.92;16.05;;;13.10;99.90;;;;;;4969348;28;20352;-88
2024/03/20 08:50:41;;;;;;;22.35;15.32;;;13.20;99.90;;;;;;4971811;28;20082;-88
2024/03/20 08:53:11;;;;;;;27.27;16.42;;;13.20;99.90;;;;;;4962968;28;20117;-87
2024/03/20 08:55:36;;;;;;;24.75;16.95;;;13.30;99.90;;;;;;4963839;28;20031;-87
2024/03/20 08:58:06;;;;;;;25.75;14.73;;;13.40;99.90;;;;;;4966212;28;20023;-87
2024/03/20 09:00:33;;;;;;;22.13;14.00;;;13.50;99.90;;;;;;4964319;28;20126;-87
2024/03/20 09:02:59;;;;;;;27.73;17.27;;;13.60;99.90;;;;;;4969153;28;20078;-87
2024/03/20 09:05:25;;;;;;;22.17;16.92;;;13.80;99.90;;;;;;4966158;28;20097;-87
2024/03/20 09:07:51;;;;;;;25.40;16.27;;;14.00;99.90;;;;;;4968435;28;20031;-88
2024/03/20 09:10:17;;;;;;;28.88;17.52;;;14.10;99.90;;;;;;4960341;28;21026;-87
2024/03/20 09:12:42;;;;;;;27.00;16.35;;;14.20;99.90;;;;;;4966480;28;20051;-87
2024/03/20 09:15:09;;;;;;;31.38;17.38;;;14.30;99.90;;;;;;4967934;28;20046;-88
2024/03/20 09:17:35;;;;;;;26.13;18.00;;;14.40;99.90;;;;;;4958441;28;20035;-87
2024/03/20 09:20:03;;;;;;;23.77;16.77;;;14.50;99.90;;;;;;4965401;28;20168;-88
2024/03/20 09:22:29;;;;;;;27.23;16.63;;;14.60;99.90;;;;;;4966536;28;20498;-88
2024/03/20 09:24:54;;;;;;;23.77;16.20;;;14.70;99.90;;;;;;4968888;28;20027;-88
2024/03/20 09:27:20;;;;;;;25.88;17.20;;;14.70;99.90;;;;;;4968637;28;20585;-88
2024/03/20 09:29:46;;;;;;;29.38;18.10;;;14.80;99.90;;;;;;4968815;28;20117;-88
2024/03/20 09:32:12;;;;;;;27.17;18.40;;;14.90;99.90;;;;;;4965308;28;20039;-87
2024/03/20 09:34:38;;;;;;;24.05;18.48;;;15.00;99.90;;;;;;4965411;28;20391;-87
2024/03/20 09:37:05;;;;;;;30.05;18.08;;;15.10;99.90;;;;;;4970138;28;20035;-87
2024/03/20 09:39:31;;;;;;;31.15;17.85;;;15.20;99.90;;;;;;4963742;28;20047;-87
2024/03/20 09:41:57;;;;;;;34.03;19.33;;;15.30;99.90;;;;;;4966373;28;20479;-88
2024/03/20 09:44:23;;;;;;;30.38;17.45;;;15.40;99.90;;;;;;4965360;28;20102;-87
2024/03/20 09:46:53;;;;;;;26.40;17.65;;;15.50;99.90;;;;;;4967940;28;20399;-87
2024/03/20 09:49:21;;;;;;;22.95;16.88;;;15.50;99.90;;;;;;4963998;28;20499;-88
2024/03/20 09:51:48;;;;;;;34.00;19.25;;;15.60;99.90;;;;;;4970690;28;20121;-88
2024/03/20 09:54:14;;;;;;;27.52;18.98;;;15.60;99.90;;;;;;4970993;28;20487;-88
2024/03/20 09:56:43;;;;;;;28.33;16.98;;;15.70;99.90;;;;;;4969966;28;20095;-87
2024/03/20 09:59:09;;;;;;;27.95;17.85;;;15.70;99.90;;;;;;4969110;28;20061;-86
2024/03/20 10:01:34;;;;;;;29.33;19.10;;;15.80;99.90;;;;;;4967934;28;20034;-87
2024/03/20 10:04:06;;;;;;;24.02;18.48;;;15.90;99.90;;;;;;4963767;28;20026;-87
2024/03/20 10:06:36;;;;;;;;;;;16.00;99.90;;;;;;4966547;28;20034;-88
2024/03/20 10:09:08;;;;;;;26.60;17.83;;;16.10;99.90;;;;;;4964059;28;19968;-88
2024/03/20 10:11:34;;;;;;;27.13;18.63;;;16.10;99.90;;;;;;4969376;28;20043;-87
2024/03/20 10:14:00;;;;;;;27.98;19.10;;;16.20;99.90;;;;;;4965776;28;20039;-87
2024/03/20 10:16:28;;;;;;;31.70;20.85;;;16.30;99.90;;;;;;4972115;28;20218;-87
2024/03/20 10:18:54;;;;;;;34.50;19.33;;;16.40;99.90;;;;;;4977296;28;20090;-87
2024/03/20 10:21:20;;;;;;;32.65;21.38;;;16.50;99.90;;;;;;4966909;28;20476;-87
2024/03/20 10:23:46;;;;;;;30.95;19.65;;;16.60;99.90;;;;;;4973733;28;20048;-87
2024/03/20 10:26:15;;;;;;;25.48;17.92;;;16.70;99.90;;;;;;4972932;28;20050;-87
2024/03/20 10:28:45;;;;;;;29.33;20.48;;;16.80;99.90;;;;;;4973336;28;20057;-87
2024/03/20 10:31:12;;;;;;;26.88;19.65;;;16.80;99.90;;;;;;4971096;28;20135;-87
2024/03/20 10:33:44;;;;;;;26.15;19.63;;;16.80;99.90;;;;;;4980214;28;20092;-86
2024/03/20 10:36:14;;;;;;;28.58;20.67;;;16.90;99.90;;;;;;4984669;28;20474;-87
2024/03/20 10:38:41;;;;;;;24.85;17.55;;;16.90;99.90;;;;;;4971201;28;20031;-87
2024/03/20 10:41:06;;;;;;;23.13;17.83;;;17.00;99.90;;;;;;4969708;28;21928;-87
2024/03/20 10:43:34;;;;;;;27.08;19.58;;;17.10;99.90;;;;;;4959413;28;20027;-86
2024/03/20 10:46:00;;;;;;;26.15;20.10;;;17.20;99.90;;;;;;4978148;28;20482;-86
2024/03/20 10:48:26;;;;;;;27.02;19.80;;;17.20;99.90;;;;;;4966068;28;20027;-87
2024/03/20 10:50:54;;;;;;;21.38;18.05;;;17.30;99.90;;;;;;4973696;28;20038;-86
2024/03/20 10:53:24;;;;;;;26.42;17.75;;;17.30;99.90;;;;;;4962334;28;20487;-87
2024/03/20 10:55:52;;;;;;;22.80;16.67;;;17.40;99.90;;;;;;4976737;28;20028;-86
2024/03/20 10:58:18;;;;;;;24.13;18.17;;;17.30;99.90;;;;;;4985057;28;20034;-87
2024/03/20 11:00:51;;;;;;;25.88;18.23;;;17.40;99.90;;;;;;4966107;28;20047;-87
2024/03/20 11:03:38;;;;;;;23.60;18.20;;;17.50;99.90;;;;;;4962145;28;20498;-87
2024/03/20 11:06:28;;;;;;;25.95;18.73;;;17.50;99.90;;;;;;4968685;28;20023;-87
2024/03/20 11:09:06;;;;;;;27.27;18.55;;;17.60;99.90;;;;;;4965991;28;20038;-88
2024/03/20 11:11:32;;;;;;;27.23;19.00;;;17.70;99.90;;;;;;4971179;28;20082;-87
2024/03/20 11:14:10;;;;;;;22.83;18.13;;;17.80;99.90;;;;;;4973748;28;20045;-88
2024/03/20 11:16:38;;;;;;;25.77;17.77;;;17.80;99.90;;;;;;4965174;28;20114;-88
2024/03/20 11:19:09;;;;;;;23.30;17.70;;;17.90;99.90;;;;;;4972555;28;20078;-87
2024/03/20 11:21:35;;;;;;;23.02;18.33;;;18.00;99.90;;;;;;4970476;28;20476;-87
2024/03/20 11:24:01;;;;;;;27.33;19.75;;;18.10;99.90;;;;;;4969034;28;20093;-88
2024/03/20 11:26:29;;;;;;;27.33;20.15;;;18.20;99.90;;;;;;4972325;28;20034;-87
2024/03/20 11:28:57;;;;;;;27.17;19.00;;;18.20;99.90;;;;;;4973139;28;20027;-87
2024/03/20 11:31:23;;;;;;;24.05;19.92;;;18.30;99.90;;;;;;4975392;28;20037;-88
2024/03/20 11:33:49;;;;;;;27.60;21.50;;;18.40;99.90;;;;;;4988022;28;20487;-88
2024/03/20 11:36:21;;;;;;;25.33;20.08;;;18.50;99.90;;;;;;4970455;28;20035;-87
2024/03/20 11:38:47;;;;;;;;;;;18.60;99.90;;;;;;4963812;28;20031;-87
2024/03/20 11:41:17;;;;;;;23.45;16.88;;;18.70;99.90;;;;;;4972030;28;20678;-88
2024/03/20 11:43:43;;;;;;;22.33;16.85;;;18.80;99.90;;;;;;4968094;28;20126;-88
2024/03/20 11:46:14;;;;;;;21.63;16.80;;;18.90;99.90;;;;;;4968551;28;20066;-87
2024/03/20 11:48:40;;;;;;;25.02;18.13;;;19.00;99.90;;;;;;4973801;28;20031;-87
2024/03/20 11:51:10;;;;;;;25.10;17.88;;;19.10;99.90;;;;;;4986248;28;20046;-88
2024/03/20 11:53:36;;;;;;;22.85;16.50;;;19.10;99.90;;;;;;4985969;28;20039;-88
2024/03/20 11:56:02;;;;;;;22.42;18.63;;;19.10;99.90;;;;;;4972105;28;20550;-88
2024/03/20 11:58:28;;;;;;;25.70;19.27;;;19.10;99.90;;;;;;4969571;28;20444;-89
2024/03/20 12:00:54;;;;;;;24.50;18.55;;;19.10;99.90;;;;;;4973468;28;20125;-89
2024/03/20 12:03:21;;;;;;;22.02;15.77;;;19.10;99.90;;;;;;4969403;28;20029;-88
2024/03/20 12:05:47;;;;;;;20.95;16.88;;;19.20;99.90;;;;;;4958992;28;20548;-88
2024/03/20 12:08:14;;;;;;;21.50;16.23;;;19.30;99.90;;;;;;4972504;28;20399;-89
2024/03/20 12:10:42;;;;;;;20.10;16.85;;;19.50;99.90;;;;;;4968632;28;20070;-88
2024/03/20 12:13:10;;;;;;;18.45;15.98;;;19.60;99.90;;;;;;4965732;28;20027;-87
2024/03/20 12:15:37;;;;;;;19.75;16.60;;;19.50;99.90;;;;;;4965095;28;20073;-87
2024/03/20 12:18:03;;;;;;;19.15;14.60;;;19.40;99.90;;;;;;4968629;28;20027;-86
2024/03/20 12:20:31;;;;;;;22.42;16.40;;;19.30;99.90;;;;;;4973245;28;20037;-87
2024/03/20 12:22:58;;;;;;;19.52;14.63;;;19.10;99.90;;;;;;4966051;28;20027;-84
2024/03/20 12:25:23;;;;;;;22.60;15.95;;;18.90;99.90;;;;;;4969576;28;20056;-84
2024/03/20 12:27:49;;;;;;;22.48;16.48;;;18.80;99.90;;;;;;4973456;28;20027;-84
2024/03/20 12:30:15;;;;;;;23.27;16.63;;;18.70;99.90;;;;;;4973796;28;20441;-83
2024/03/20 12:32:40;;;;;;;20.10;16.58;;;18.60;99.90;;;;;;4972359;28;20022;-83